createdAt,value
2023-02-06T00:01:28.895Z,100404.38
2023-02-06T00:03:57.308Z,100406.09
2023-02-06T00:06:31.707Z,100408.09
2023-02-06T00:09:03.760Z,100413.66
2023-02-06T00:11:32.035Z,100414.67
2023-02-06T00:14:00.537Z,100413.48
2023-02-06T00:16:48.899Z,100416.44
2023-02-06T00:19:18.780Z,100421.05
2023-02-06T00:21:47.155Z,100421.40
2023-02-06T00:24:15.564Z,100419.98
2023-02-06T00:26:44.419Z,100419.78
2023-02-06T00:29:13.414Z,100419.82
2023-02-06T00:31:41.854Z,100423.05
2023-02-06T00:34:10.272Z,100421.73
2023-02-06T00:36:39.273Z,100420.89
2023-02-06T00:39:07.793Z,100425.61
2023-02-06T00:41:38.790Z,100425.94
2023-02-06T00:44:07.268Z,100421.53
2023-02-06T00:46:36.049Z,100416.97
2023-02-06T00:49:04.744Z,100411.73
2023-02-06T00:51:36.506Z,100409.20
2023-02-06T00:54:05.406Z,100414.27
2023-02-06T00:56:34.692Z,100416.95
2023-02-06T00:59:04.037Z,100416.96
2023-02-06T01:01:34.487Z,100421.20
2023-02-06T01:04:03.100Z,100419.86
2023-02-06T01:06:51.650Z,100422.09
2023-02-06T01:09:20.334Z,100425.46
2023-02-06T01:11:48.851Z,100428.11
2023-02-06T01:14:17.496Z,100428.46
2023-02-06T01:16:45.979Z,100432.70
2023-02-06T01:19:15.789Z,100430.38
2023-02-06T01:21:44.898Z,100428.69
2023-02-06T01:24:13.266Z,100432.43
2023-02-06T01:26:41.967Z,100434.29
2023-02-06T01:29:10.333Z,100436.09
2023-02-06T01:31:38.845Z,100435.59
2023-02-06T01:34:08.316Z,100435.63
2023-02-06T01:36:38.735Z,100438.02
2023-02-06T01:39:07.876Z,100436.85
2023-02-06T01:41:36.521Z,100433.80
2023-02-06T01:44:15.140Z,100438.03
2023-02-06T01:46:45.289Z,100442.41
2023-02-06T01:49:25.617Z,100442.77
2023-02-06T01:51:55.458Z,100443.96
2023-02-06T01:54:24.110Z,100443.30
2023-02-06T01:56:54.808Z,100449.73
2023-02-06T01:59:23.250Z,100454.51
2023-02-06T02:01:51.619Z,100457.04
2023-02-06T02:04:21.669Z,100454.65
2023-02-06T02:07:08.737Z,100454.83
2023-02-06T02:09:37.261Z,100459.77
2023-02-06T02:12:09.197Z,100460.95
2023-02-06T02:14:40.660Z,100461.12
2023-02-06T02:17:15.564Z,100466.37
2023-02-06T02:19:50.084Z,100466.52
2023-02-06T02:22:33.825Z,100466.72
2023-02-06T02:25:05.139Z,100465.19
2023-02-06T02:28:18.953Z,100464.35
2023-02-06T02:31:10.666Z,100464.68
2023-02-06T02:34:04.022Z,100465.36
2023-02-06T02:36:47.262Z,100466.70
2023-02-06T02:39:21.350Z,100463.99
2023-02-06T02:42:09.931Z,100466.70
2023-02-06T02:44:53.326Z,100471.45
2023-02-06T02:47:24.890Z,100468.42
2023-02-06T02:49:53.052Z,100469.09
2023-02-06T02:52:21.672Z,100468.75
2023-02-06T02:54:50.426Z,100466.71
2023-02-06T02:57:22.855Z,100467.73
2023-02-06T02:59:51.104Z,100464.15
2023-02-06T03:02:24.718Z,100467.73
2023-02-06T03:04:58.133Z,100463.30
2023-02-06T03:07:30.636Z,100459.92
2023-02-06T03:10:31.614Z,100462.81
2023-02-06T03:13:23.613Z,100466.71
2023-02-06T03:16:01.615Z,100466.04
2023-02-06T03:18:59.707Z,100469.25
2023-02-06T03:21:29.604Z,100471.29
2023-02-06T03:23:59.608Z,100466.54
2023-02-06T03:26:29.249Z,100466.88
2023-02-06T03:29:00.929Z,100464.15
2023-02-06T03:31:36.461Z,100467.23
2023-02-06T03:34:15.460Z,100464.48
2023-02-06T03:36:44.416Z,100463.66
2023-02-06T03:39:12.830Z,100467.55
2023-02-06T03:41:41.308Z,100467.55
2023-02-06T03:44:10.980Z,100471.80
2023-02-06T03:46:42.268Z,100467.88
2023-02-06T03:49:12.596Z,100465.53
2023-02-06T03:51:46.848Z,100465.86
2023-02-06T03:54:17.809Z,100468.25
2023-02-06T03:56:48.832Z,100464.84
2023-02-06T03:59:17.572Z,100469.59
2023-02-06T04:01:48.336Z,100463.97
2023-02-06T04:04:20.581Z,100465.52
2023-02-06T04:06:49.157Z,100462.13
2023-02-06T04:09:17.694Z,100464.84
2023-02-06T04:11:46.116Z,100461.30
2023-02-06T04:14:15.214Z,100461.77
2023-02-06T04:16:43.565Z,100465.33
2023-02-06T04:19:12.179Z,100471.45
2023-02-06T04:21:40.764Z,100473.52
2023-02-06T04:24:09.250Z,100474.53
2023-02-06T04:26:37.936Z,100475.02
2023-02-06T04:29:06.748Z,100477.91
2023-02-06T04:31:35.266Z,100479.09
2023-02-06T04:34:04.081Z,100479.58
2023-02-06T04:36:33.206Z,100477.06
2023-02-06T04:39:01.761Z,100477.59
2023-02-06T04:41:30.137Z,100481.99
2023-02-06T04:43:58.639Z,100488.44
2023-02-06T04:46:27.251Z,100493.02
2023-02-06T04:48:55.888Z,100495.02
2023-02-06T04:51:24.387Z,100499.79
2023-02-06T04:53:53.054Z,100499.98
2023-02-06T04:56:21.479Z,100494.73
2023-02-06T04:58:49.916Z,100498.63
2023-02-06T05:01:18.610Z,100506.75
2023-02-06T05:03:47.619Z,100510.46
2023-02-06T05:06:16.806Z,100515.38
2023-02-06T05:08:45.062Z,100516.45
2023-02-06T05:11:17.569Z,100518.84
2023-02-06T05:13:45.827Z,100517.65
2023-02-06T05:16:15.942Z,100520.02
2023-02-06T05:18:47.448Z,100517.11
2023-02-06T05:21:16.067Z,100520.48
2023-02-06T05:23:44.545Z,100522.73
2023-02-06T05:26:12.872Z,100522.58
2023-02-06T05:28:41.812Z,100522.58
2023-02-06T05:31:10.516Z,100523.24
2023-02-06T05:33:39.400Z,100523.02
2023-02-06T05:36:08.583Z,100522.33
2023-02-06T05:38:37.370Z,100524.88
2023-02-06T05:41:06.271Z,100531.05
2023-02-06T05:43:34.646Z,100529.88
2023-02-06T05:46:03.168Z,100526.13
2023-02-06T05:48:31.602Z,100531.70
2023-02-06T05:51:00.500Z,100534.39
2023-02-06T05:53:28.880Z,100536.73
2023-02-06T05:55:57.462Z,100544.77
2023-02-06T05:58:26.250Z,100542.95
2023-02-06T06:00:54.483Z,100540.05
2023-02-06T06:03:23.515Z,100538.13
2023-02-06T06:05:53.741Z,100538.95
2023-02-06T06:08:22.224Z,100543.70
2023-02-06T06:10:51.935Z,100546.60
2023-02-06T06:13:21.741Z,100554.65
2023-02-06T06:15:52.116Z,100556.88
2023-02-06T06:18:21.160Z,100559.75
2023-02-06T06:20:49.549Z,100560.06
2023-02-06T06:23:18.117Z,100561.90
2023-02-06T06:25:47.425Z,100564.77
2023-02-06T06:28:16.559Z,100562.55
2023-02-06T06:30:44.907Z,100567.20
2023-02-06T06:33:15.512Z,100567.58
2023-02-06T06:35:44.135Z,100565.88
2023-02-06T06:38:13.010Z,100565.83
2023-02-06T06:40:41.477Z,100564.10
2023-02-06T06:43:10.480Z,100565.61
2023-02-06T06:45:39.616Z,100570.70
2023-02-06T06:48:08.525Z,100574.70
2023-02-06T06:50:36.948Z,100571.14
2023-02-06T06:53:05.514Z,100573.32
2023-02-06T06:55:34.951Z,100575.16
2023-02-06T06:58:03.398Z,100575.61
2023-02-06T07:00:31.929Z,100575.77
2023-02-06T07:03:00.655Z,100573.58
2023-02-06T07:05:29.862Z,100575.71
2023-02-06T07:07:58.556Z,100576.06
2023-02-06T07:10:27.669Z,100577.93
2023-02-06T07:12:57.153Z,100576.58
2023-02-06T07:15:26.039Z,100582.86
2023-02-06T07:17:56.365Z,100585.56
2023-02-06T07:20:25.150Z,100585.87
2023-02-06T07:22:53.952Z,100585.86
2023-02-06T07:25:23.147Z,100587.63
2023-02-06T07:27:51.904Z,100582.17
2023-02-06T07:30:20.892Z,100583.88
2023-02-06T07:32:50.535Z,100587.11
2023-02-06T07:35:19.212Z,100588.63
2023-02-06T07:37:47.593Z,100593.88
2023-02-06T07:40:16.375Z,100591.67
2023-02-06T07:42:45.374Z,100591.00
2023-02-06T07:45:22.356Z,100594.92
2023-02-06T07:47:52.234Z,100594.05
2023-02-06T07:50:21.152Z,100596.63
2023-02-06T07:52:49.573Z,100599.13
2023-02-06T07:55:18.121Z,100599.66
2023-02-06T07:57:46.594Z,100603.70
2023-02-06T08:00:16.667Z,100601.98
2023-02-06T08:02:45.915Z,100603.39
2023-02-06T08:05:14.497Z,100602.75
2023-02-06T08:07:43.314Z,100604.79
2023-02-06T08:10:11.869Z,100606.30
2023-02-06T08:13:00.331Z,100607.83
2023-02-06T08:15:29.005Z,100609.54
2023-02-06T08:17:57.737Z,100613.11
2023-02-06T08:20:26.683Z,100611.21
2023-02-06T08:22:55.054Z,100619.28
2023-02-06T08:25:23.464Z,100619.81
2023-02-06T08:27:55.683Z,100615.11
2023-02-06T08:30:24.614Z,100621.40
2023-02-06T08:32:53.379Z,100614.12
2023-02-06T08:35:21.965Z,100618.55
2023-02-06T08:37:50.961Z,100619.58
2023-02-06T08:40:21.488Z,100620.75
2023-02-06T08:42:51.507Z,100620.06
2023-02-06T08:45:19.882Z,100620.21
2023-02-06T08:47:48.769Z,100619.50
2023-02-06T08:50:17.356Z,100628.05
2023-02-06T08:52:46.241Z,100629.58
2023-02-06T08:55:14.852Z,100630.92
2023-02-06T08:57:43.408Z,100635.88
2023-02-06T09:00:13.119Z,100631.97
2023-02-06T09:02:41.486Z,100632.63
2023-02-06T09:05:10.180Z,100635.71
2023-02-06T09:07:38.667Z,100632.46
2023-02-06T09:10:11.605Z,100639.25
2023-02-06T09:12:45.153Z,100634.81
2023-02-06T09:15:13.729Z,100643.17
2023-02-06T09:17:46.104Z,100641.65
2023-02-06T09:20:14.891Z,100641.80
2023-02-06T09:22:44.865Z,100639.09
2023-02-06T09:25:13.311Z,100641.12
2023-02-06T09:27:44.072Z,100645.39
2023-02-06T09:30:14.486Z,100639.77
2023-02-06T09:32:43.550Z,100634.16
2023-02-06T09:35:12.321Z,100636.34
2023-02-06T09:37:43.052Z,100637.38
2023-02-06T09:40:12.915Z,100636.54
2023-02-06T09:42:41.350Z,100633.32
2023-02-06T09:45:19.196Z,100628.02
2023-02-06T09:48:18.346Z,100624.98
2023-02-06T09:51:02.479Z,100626.62
2023-02-06T09:53:59.244Z,100622.85
2023-02-06T09:56:40.118Z,100619.73
2023-02-06T09:59:27.361Z,100617.25
2023-02-06T10:02:18.846Z,100609.28
2023-02-06T10:04:57.948Z,100611.88
2023-02-06T10:07:35.889Z,100610.55
2023-02-06T10:10:14.237Z,100614.52
2023-02-06T10:12:46.140Z,100615.91
2023-02-06T10:15:24.413Z,100618.20
2023-02-06T10:17:59.199Z,100615.59
2023-02-06T10:20:40.682Z,100621.08
2023-02-06T10:23:13.258Z,100620.05
2023-02-06T10:25:51.872Z,100617.02
2023-02-06T10:28:27.791Z,100615.22
2023-02-06T10:31:18.162Z,100617.66
2023-02-06T10:33:49.882Z,100611.96
2023-02-06T10:36:49.945Z,100609.66
2023-02-06T10:39:37.465Z,100603.86
2023-02-06T10:42:37.297Z,100606.39
2023-02-06T10:45:24.793Z,100606.90
2023-02-06T10:47:59.504Z,100601.54
2023-02-06T10:50:32.177Z,100599.47
2023-02-06T10:53:04.481Z,100596.41
2023-02-06T10:55:55.871Z,100591.16
2023-02-06T10:58:54.839Z,100592.09
2023-02-06T11:01:26.433Z,100585.60
2023-02-06T11:04:18.522Z,100586.45
2023-02-06T11:06:47.770Z,100586.54
2023-02-06T11:09:16.050Z,100584.27
2023-02-06T11:11:48.806Z,100583.23
2023-02-06T11:14:24.939Z,100583.52
2023-02-06T11:16:53.757Z,100586.26
2023-02-06T11:19:53.083Z,100582.73
2023-02-06T11:22:30.139Z,100580.60
2023-02-06T11:25:08.040Z,100581.65
2023-02-06T11:27:36.596Z,100579.20
2023-02-06T11:30:20.743Z,100577.50
2023-02-06T11:33:03.605Z,100583.38
2023-02-06T11:35:41.679Z,100580.34
2023-02-06T11:38:21.466Z,100580.98
2023-02-06T11:41:01.323Z,100584.66
2023-02-06T11:43:34.075Z,100584.09
2023-02-06T11:46:30.298Z,100579.73
2023-02-06T11:49:02.794Z,100575.84
2023-02-06T11:52:01.571Z,100578.09
2023-02-06T11:54:32.187Z,100573.41
2023-02-06T11:57:08.096Z,100573.11
2023-02-06T11:59:37.449Z,100569.80
2023-02-06T12:02:32.303Z,100563.85
2023-02-06T12:05:15.799Z,100562.11
2023-02-06T12:07:46.556Z,100558.83
2023-02-06T12:10:19.710Z,100554.34
2023-02-06T12:12:53.410Z,100555.10
2023-02-06T12:15:46.127Z,100551.20
2023-02-06T12:18:44.645Z,100548.39
2023-02-06T12:21:15.914Z,100540.69
2023-02-06T12:23:56.864Z,100536.73
2023-02-06T12:26:28.029Z,100535.25
2023-02-06T12:29:03.837Z,100532.39
2023-02-06T12:31:42.092Z,100530.05
2023-02-06T12:34:14.649Z,100524.25
2023-02-06T12:36:53.863Z,100525.41
2023-02-06T12:39:24.137Z,100525.55
2023-02-06T12:42:19.100Z,100521.36
2023-02-06T12:45:27.729Z,100523.42
2023-02-06T12:48:11.939Z,100522.41
2023-02-06T12:51:13.421Z,100510.84
2023-02-06T12:53:54.471Z,100523.27
2023-02-06T12:56:28.364Z,100519.63
2023-02-06T12:59:09.384Z,100526.61
2023-02-06T13:01:41.278Z,100524.27
2023-02-06T13:04:36.342Z,100532.08
2023-02-06T13:07:14.823Z,100529.36
2023-02-06T13:09:54.264Z,100528.52
2023-02-06T13:12:25.267Z,100522.58
2023-02-06T13:14:54.962Z,100532.92
2023-02-06T13:17:28.140Z,100535.60
2023-02-06T13:20:03.933Z,100534.41
2023-02-06T13:22:40.232Z,100540.86
2023-02-06T13:25:30.891Z,100541.88
2023-02-06T13:28:22.854Z,100542.74
2023-02-06T13:31:08.208Z,100541.54
2023-02-06T13:33:44.887Z,100538.49
2023-02-06T13:36:18.525Z,100546.45
2023-02-06T13:38:46.750Z,100534.93
2023-02-06T13:41:27.791Z,100538.20
2023-02-06T13:44:06.955Z,100546.70
2023-02-06T13:47:00.500Z,100549.57
2023-02-06T13:49:55.387Z,100550.26
2023-02-06T13:52:43.838Z,100556.69
2023-02-06T13:55:15.690Z,100559.55
2023-02-06T13:57:55.237Z,100560.04
2023-02-06T14:00:30.272Z,100566.30
2023-02-06T14:03:06.855Z,100569.45
2023-02-06T14:05:41.261Z,100576.04
2023-02-06T14:08:18.561Z,100578.91
2023-02-06T14:11:05.763Z,100576.34
2023-02-06T14:13:39.892Z,100579.72
2023-02-06T14:16:11.991Z,100578.05
2023-02-06T14:19:02.300Z,100574.27
2023-02-06T14:21:42.695Z,100575.92
2023-02-06T14:24:17.259Z,100582.27
2023-02-06T14:26:50.634Z,100580.66
2023-02-06T14:29:22.070Z,100583.60
2023-02-06T14:32:13.609Z,100587.79
2023-02-06T14:35:12.991Z,100595.19
2023-02-06T14:37:57.444Z,100591.02
2023-02-06T14:40:27.726Z,100592.60
2023-02-06T14:42:57.711Z,100585.92
2023-02-06T14:45:42.106Z,100578.40
2023-02-06T14:48:29.518Z,100576.69
2023-02-06T14:50:58.150Z,100584.02
2023-02-06T14:53:32.391Z,100584.41
2023-02-06T14:56:17.322Z,100592.20
2023-02-06T14:58:46.665Z,100587.48
2023-02-06T15:01:18.186Z,100584.41
2023-02-06T15:03:48.496Z,100593.48
2023-02-06T15:06:36.751Z,100593.36
2023-02-06T15:09:06.042Z,100595.93
2023-02-06T15:11:34.838Z,100607.86
2023-02-06T15:14:05.976Z,100603.87
2023-02-06T15:16:50.842Z,100602.10
2023-02-06T15:19:22.071Z,100603.16
2023-02-06T15:21:52.873Z,100607.58
2023-02-06T15:24:52.444Z,100613.96
2023-02-06T15:27:32.276Z,100613.52
2023-02-06T15:30:01.720Z,100610.11
2023-02-06T15:32:37.496Z,100605.08
2023-02-06T15:35:41.452Z,100609.02
2023-02-06T15:38:14.644Z,100612.39
2023-02-06T15:40:44.757Z,100614.63
2023-02-06T15:43:20.273Z,100618.91
2023-02-06T15:45:50.442Z,100619.64
2023-02-06T15:48:34.187Z,100617.61
2023-02-06T15:51:08.582Z,100623.67
2023-02-06T15:53:41.563Z,100622.32
2023-02-06T15:56:28.685Z,100626.34
2023-02-06T15:59:02.859Z,100631.05
2023-02-06T16:01:37.366Z,100631.77
2023-02-06T16:04:12.448Z,100631.13
2023-02-06T16:06:40.935Z,100635.66
2023-02-06T16:09:18.926Z,100631.08
2023-02-06T16:11:47.730Z,100630.00
2023-02-06T16:14:40.371Z,100625.84
2023-02-06T16:21:27.748Z,100630.63
2023-02-06T16:24:05.740Z,100629.85
2023-02-06T16:26:41.272Z,100631.25
2023-02-06T16:29:08.605Z,100638.82
2023-02-06T16:31:40.507Z,100635.96
2023-02-06T16:34:20.249Z,100636.56
2023-02-06T16:36:48.186Z,100637.94
2023-02-06T16:39:15.428Z,100630.54
2023-02-06T16:41:42.909Z,100624.09
2023-02-06T16:44:12.422Z,100622.89
2023-02-06T16:46:39.844Z,100617.35
2023-02-06T16:49:15.264Z,100620.77
2023-02-06T16:51:43.375Z,100618.21
2023-02-06T16:54:26.799Z,100621.59
2023-02-06T16:56:54.960Z,100621.39
2023-02-06T16:59:22.355Z,100621.31
2023-02-06T17:01:49.682Z,100617.55
2023-02-06T17:04:16.707Z,100616.55
2023-02-06T17:06:44.075Z,100618.09
2023-02-06T17:09:14.291Z,100612.61
2023-02-06T17:11:41.684Z,100612.78
2023-02-06T17:14:10.844Z,100611.25
2023-02-06T17:16:38.916Z,100610.39
2023-02-06T17:19:06.582Z,100607.89
2023-02-06T17:21:34.160Z,100609.84
2023-02-06T17:24:01.334Z,100617.59
2023-02-06T17:26:28.655Z,100619.38
2023-02-06T17:28:55.793Z,100618.29
2023-02-06T17:31:23.067Z,100617.51
2023-02-06T17:33:50.396Z,100623.12
2023-02-06T17:36:28.790Z,100617.96
2023-02-06T17:38:58.434Z,100604.77
2023-02-06T17:41:26.720Z,100600.60
2023-02-06T17:43:53.953Z,100603.46
2023-02-06T17:46:21.034Z,100598.34
2023-02-06T17:48:48.142Z,100597.47
2023-02-06T17:51:15.743Z,100595.41
2023-02-06T17:53:49.851Z,100594.98
2023-02-06T17:56:17.017Z,100593.91
2023-02-06T17:58:44.420Z,100595.02
2023-02-06T18:01:12.874Z,100600.59
2023-02-06T18:03:40.879Z,100602.64
2023-02-06T18:06:08.633Z,100596.35
2023-02-06T18:08:36.191Z,100595.63
2023-02-06T18:11:11.636Z,100589.11
2023-02-06T18:13:39.817Z,100592.84
2023-02-06T18:16:28.157Z,100597.36
2023-02-06T18:18:55.429Z,100598.86
2023-02-06T18:21:24.296Z,100597.41
2023-02-06T18:23:51.965Z,100601.04
2023-02-06T18:26:19.110Z,100603.04
2023-02-06T18:28:46.665Z,100604.65
2023-02-06T18:31:32.808Z,100615.56
2023-02-06T18:34:02.203Z,100617.29
2023-02-06T18:36:32.076Z,100612.35
2023-02-06T18:39:01.576Z,100608.67
2023-02-06T18:41:47.811Z,100607.96
2023-02-06T18:44:15.225Z,100610.75
2023-02-06T18:46:43.160Z,100614.20
2023-02-06T18:49:11.881Z,100615.45
2023-02-06T18:51:39.583Z,100621.04
2023-02-06T18:54:07.513Z,100616.24
2023-02-06T18:56:34.866Z,100620.31
2023-02-06T18:59:03.548Z,100623.52
2023-02-06T19:01:31.490Z,100618.23
2023-02-06T19:03:59.079Z,100615.07
2023-02-06T19:06:31.163Z,100610.13
2023-02-06T19:09:00.159Z,100616.06
2023-02-06T19:11:27.746Z,100614.95
2023-02-06T19:13:54.956Z,100615.84
2023-02-06T19:16:27.901Z,100613.61
2023-02-06T19:18:54.885Z,100606.88
2023-02-06T19:21:23.758Z,100604.39
2023-02-06T19:24:00.988Z,100604.46
2023-02-06T19:26:29.242Z,100608.83
2023-02-06T19:28:57.974Z,100611.83
2023-02-06T19:31:27.886Z,100616.23
2023-02-06T19:33:57.646Z,100616.48
2023-02-06T19:36:26.349Z,100616.39
2023-02-06T19:38:55.326Z,100613.75
2023-02-06T19:41:24.857Z,100608.33
2023-02-06T19:43:52.582Z,100606.22
2023-02-06T19:46:21.885Z,100604.91
2023-02-06T19:48:50.510Z,100602.27
2023-02-06T19:51:29.020Z,100599.92
2023-02-06T19:53:56.755Z,100601.17
2023-02-06T19:56:34.133Z,100599.53
2023-02-06T19:59:20.355Z,100602.67
2023-02-06T20:01:57.512Z,100601.14
2023-02-06T20:04:29.782Z,100595.00
2023-02-06T20:06:57.035Z,100592.10
2023-02-06T20:09:24.917Z,100595.18
2023-02-06T20:11:53.699Z,100594.91
2023-02-06T20:14:21.457Z,100594.89
2023-02-06T20:16:49.090Z,100599.06
2023-02-06T20:19:18.760Z,100598.80
2023-02-06T20:21:48.550Z,100595.39
2023-02-06T20:24:18.144Z,100596.98
2023-02-06T20:26:45.141Z,100593.77
2023-02-06T20:29:20.989Z,100593.05
2023-02-06T20:31:49.242Z,100594.84
2023-02-06T20:34:16.888Z,100592.96
2023-02-06T20:36:44.550Z,100586.27
2023-02-06T20:39:12.411Z,100582.44
2023-02-06T20:41:40.504Z,100581.41
2023-02-06T20:44:07.933Z,100579.12
2023-02-06T20:46:36.313Z,100577.37
2023-02-06T20:49:11.960Z,100582.90
2023-02-06T20:51:39.105Z,100580.70
2023-02-06T20:54:06.136Z,100576.77
2023-02-06T20:56:34.017Z,100576.16
2023-02-06T20:59:01.607Z,100573.56
2023-02-06T21:01:30.520Z,100568.19
2023-02-06T21:04:04.190Z,100562.92
2023-02-06T21:06:33.349Z,100566.45
2023-02-06T21:09:00.881Z,100568.58
2023-02-06T21:11:33.521Z,100574.63
2023-02-06T21:14:01.786Z,100575.08
2023-02-06T21:16:29.861Z,100574.19
2023-02-06T21:25:33.632Z,100560.70
2023-02-06T21:28:02.313Z,100559.39
2023-02-06T21:30:32.125Z,100552.63
2023-02-06T21:33:00.605Z,100551.25
2023-02-06T21:35:30.602Z,100551.05
2023-02-06T21:37:59.074Z,100548.64
2023-02-06T21:40:27.557Z,100544.70
2023-02-06T21:42:56.548Z,100548.89
2023-02-06T21:45:24.726Z,100547.35
2023-02-06T21:47:53.555Z,100546.82
2023-02-06T21:50:22.194Z,100544.92
2023-02-06T21:52:51.537Z,100541.41
2023-02-06T21:55:19.902Z,100541.23
2023-02-06T21:57:48.568Z,100539.71
2023-02-06T22:00:17.188Z,100543.11
2023-02-06T22:02:45.630Z,100544.98
2023-02-06T22:05:14.313Z,100544.79
2023-02-06T22:07:43.629Z,100541.69
2023-02-06T22:10:15.069Z,100541.34
2023-02-06T22:12:43.742Z,100541.96
2023-02-06T22:15:12.225Z,100538.36
2023-02-06T22:17:41.534Z,100533.27
2023-02-06T22:20:10.617Z,100531.02
2023-02-06T22:22:39.926Z,100526.65
2023-02-06T22:25:11.578Z,100524.61
2023-02-06T22:27:40.976Z,100525.63
2023-02-06T22:30:11.228Z,100528.14
2023-02-06T22:32:40.393Z,100523.87
2023-02-06T22:35:08.971Z,100524.68
2023-02-06T22:37:39.116Z,100521.25
2023-02-06T22:40:08.288Z,100523.10
2023-02-06T22:42:38.302Z,100519.30
2023-02-06T22:45:07.525Z,100515.42
2023-02-06T22:47:35.893Z,100509.14
2023-02-06T22:50:04.666Z,100505.06
2023-02-06T22:52:52.299Z,100495.71
2023-02-06T22:55:20.813Z,100494.00
2023-02-06T22:57:49.565Z,100491.08
2023-02-06T23:00:18.783Z,100491.27
2023-02-06T23:02:47.858Z,100492.17
2023-02-06T23:05:16.133Z,100490.32
2023-02-06T23:07:44.729Z,100493.20
2023-02-06T23:10:13.229Z,100487.08
2023-02-06T23:12:42.089Z,100491.81
2023-02-06T23:15:10.616Z,100487.04
2023-02-06T23:17:39.057Z,100485.48
2023-02-06T23:20:08.351Z,100486.33
2023-02-06T23:22:37.039Z,100479.44
2023-02-06T23:25:06.443Z,100488.95
2023-02-06T23:27:35.433Z,100493.20
2023-02-06T23:30:04.642Z,100492.52
2023-02-06T23:32:33.223Z,100486.58
2023-02-06T23:35:02.000Z,100493.52
2023-02-06T23:37:30.606Z,100488.09
2023-02-06T23:39:59.677Z,100484.49
2023-02-06T23:42:29.284Z,100487.58
2023-02-06T23:44:57.558Z,100486.55
2023-02-06T23:47:26.037Z,100487.75
2023-02-06T23:49:54.662Z,100485.38
2023-02-06T23:52:23.140Z,100483.54
2023-02-06T23:54:51.790Z,100489.11
2023-02-06T23:57:20.296Z,100491.98
2023-02-06T23:59:49.059Z,100486.71
